Time;durP1;ratioP1;P1;durP2;ratioP2;P2;SDS_P1;SDS_P2;PMS_P1;PMS_P2;Temp;Humidity;BMP_temperature;BMP_pressure;BME280_temperature;BME280_humidity;BME280_pressure;Samples;Min_cycle;Max_cycle;Signal;HPM_P1;HPM_P2
2021/12/31 00:00:34;;;;;;;13.70;12.40;;;;;;;9.62;84.09;100253.79;105904;1310;22053;-81
2021/12/31 00:04:22;;;;;;;;;;;;;;;;;;;;;
2021/12/31 00:10:44;;;;;;;;;;;;;;;;;;;;;
2021/12/31 00:14:01;;;;;;;;;;;;;;;;;;;;;
2021/12/31 00:17:13;;;;;;;11.30;10.40;;;;;;;9.59;84.34;100259.54;105790;1308;22174;-80
2021/12/31 00:20:42;;;;;;;;;;;;;;;;;;;;;
2021/12/31 00:24:02;;;;;;;;;;;;;;;;;;;;;
2021/12/31 00:28:05;;;;;;;12.70;11.50;;;;;;;9.59;84.35;100258.83;106474;1301;22023;-79
2021/12/31 00:31:35;;;;;;;;;;;;;;;;;;;;;
2021/12/31 00:34:54;;;;;;;11.60;10.50;;;;;;;9.61;84.27;100252.59;105747;1304;23881;-82
2021/12/31 00:39:29;;;;;;;;;;;;;;;;;;;;;
2021/12/31 00:43:12;;;;;;;;;;;;;;;;;;;;;
2021/12/31 00:46:50;;;;;;;;;;;;;;;;;;;;;
2021/12/31 00:53:57;;;;;;;12.30;11.20;;;;;;;9.65;84.72;100249.91;105382;1311;23127;-79
2021/12/31 00:57:03;;;;;;;;;;;;;;;;;;;;;
2021/12/31 00:59:57;;;;;;;12.70;11.60;;;;;;;9.76;84.67;100252.79;105075;1314;22038;-79
2021/12/31 01:03:17;;;;;;;;;;;;;;;;;;;;;
2021/12/31 01:06:41;;;;;;;12.90;11.70;;;;;;;9.83;84.47;100241.48;105228;1313;22053;-80
2021/12/31 01:09:45;;;;;;;;;;;;;;;;;;;;;
2021/12/31 01:13:23;;;;;;;12.90;11.60;;;;;;;9.86;84.58;100246.10;106920;1295;23053;-81
2021/12/31 01:16:56;;;;;;;10.60;9.50;;;;;;;9.88;84.59;100256.42;106299;1301;22043;-80
2021/12/31 01:24:29;;;;;;;;;;;;;;;;;;;;;
2021/12/31 01:27:54;;;;;;;;;;;;;;;;;;;;;
2021/12/31 01:32:01;;;;;;;;;;;;;;;;;;;;;
2021/12/31 01:34:15;;;;;;;;;;;;;;;;;;;;;
2021/12/31 01:37:34;;;;;;;10.20;9.20;;;;;;;10.02;84.38;100276.37;105920;1302;22053;-81
2021/12/31 01:41:27;;;;;;;10.30;9.30;;;;;;;10.02;84.31;100277.90;105924;1305;22529;-80
2021/12/31 01:45:05;;;;;;;;;;;;;;;;;;;;;
2021/12/31 01:48:32;;;;;;;12.00;10.80;;;;;;;10.03;84.39;100282.30;105094;1316;22407;-80
2021/12/31 01:54:59;;;;;;;11.30;10.30;;;;;;;10.05;84.37;100276.20;104489;1322;22404;-80
2021/12/31 01:58:05;;;;;;;11.60;10.50;;;;;;;10.10;84.33;100277.05;104100;1323;22062;-81
2021/12/31 02:01:35;;;;;;;11.00;10.10;;;;;;;10.12;84.39;100279.43;104546;1314;22096;-81
2021/12/31 02:05:15;;;;;;;;;;;;;;;;;;;;;
2021/12/31 02:12:02;;;;;;;;;;;;;;;;;;;;;
2021/12/31 02:15:57;;;;;;;;;;;;;;;;;;;;;
2021/12/31 02:19:32;;;;;;;16.30;14.80;;;;;;;10.13;84.60;100304.31;105462;1307;22030;-83
2021/12/31 02:22:49;;;;;;;;;;;;;;;;;;;;;
2021/12/31 02:29:46;;;;;;;;;;;;;;;;;;;;;
2021/12/31 02:33:02;;;;;;;;;;;;;;;;;;;;;
2021/12/31 02:40:07;;;;;;;;;;;;;;;;;;;;;
2021/12/31 02:46:25;;;;;;;16.80;15.10;;;;;;;10.12;84.58;100291.25;104668;1316;23626;-82
2021/12/31 02:53:09;;;;;;;15.20;14.00;;;;;;;10.19;84.60;100291.60;105185;1313;22069;-79
2021/12/31 02:56:29;;;;;;;15.20;14.00;;;;;;;10.22;84.47;100293.94;105280;1313;22049;-80
2021/12/31 02:59:56;;;;;;;;;;;;;;;;;;;;;
2021/12/31 03:03:01;;;;;;;16.40;15.10;;;;;;;10.27;84.58;100283.04;105352;1313;22016;-80
2021/12/31 03:10:15;;;;;;;15.20;14.00;;;;;;;10.27;84.70;100268.61;106301;1299;22564;-83
2021/12/31 03:16:43;;;;;;;17.00;15.60;;;;;;;10.33;84.72;100264.69;106090;1303;22120;-82
2021/12/31 03:24:08;;;;;;;;;;;;;;;;;;;;;
2021/12/31 03:27:38;;;;;;;;;;;;;;;;;;;;;
2021/12/31 03:31:56;;;;;;;;;;;;;;;;;;;;;
2021/12/31 03:36:18;;;;;;;;;;;;;;;;;;;;;
2021/12/31 03:40:01;;;;;;;12.60;11.50;;;;;;;10.38;84.72;100279.20;107418;1293;23643;-82
2021/12/31 03:44:21;;;;;;;;;;;;;;;;;;;;;
2021/12/31 03:48:00;;;;;;;10.90;10.00;;;;;;;10.40;84.60;100271.85;106572;1300;22000;-82
2021/12/31 03:51:40;;;;;;;10.00;9.20;;;;;;;10.40;84.48;100268.16;106013;1307;23725;-82
2021/12/31 03:55:03;;;;;;;;;;;;;;;;;;;;;
2021/12/31 04:02:51;;;;;;;;;;;;;;;;;;;;;
2021/12/31 04:07:13;;;;;;;;;;;;;;;;;;;;;
2021/12/31 04:10:46;;;;;;;;;;;;;;;;;;;;;
2021/12/31 04:14:27;;;;;;;;;;;;;;;;;;;;;
2021/12/31 04:18:14;;;;;;;8.80;8.10;;;;;;;10.43;84.57;100278.06;106369;1301;24070;-79
2021/12/31 04:21:44;;;;;;;9.40;8.60;;;;;;;10.46;84.71;100272.45;106594;1296;22860;-80
2021/12/31 04:33:09;;;;;;;;;;;;;;;;;;;;;
2021/12/31 04:36:35;;;;;;;9.80;8.90;;;;;;;10.51;84.83;100254.83;107780;1289;22483;-82
2021/12/31 04:40:36;;;;;;;;;;;;;;;;;;;;;
2021/12/31 04:44:41;;;;;;;7.20;6.60;;;;;;;10.56;84.74;100262.05;108165;1282;22000;-79
2021/12/31 04:48:36;;;;;;;7.90;7.20;;;;;;;10.59;84.69;100268.77;108435;1282;22012;-79
2021/12/31 04:51:54;;;;;;;;;;;;;;;;;;;;;
2021/12/31 04:56:23;;;;;;;;;;;;;;;;;;;;;
2021/12/31 05:00:57;;;;;;;7.30;6.70;;;;;;;10.61;84.74;100266.93;108138;1285;21958;-81
2021/12/31 05:05:13;;;;;;;;;;;;;;;;;;;;;
2021/12/31 05:13:02;;;;;;;;;;;;;;;;;;;;;
2021/12/31 05:16:26;;;;;;;11.80;7.50;;;;;;;10.67;84.70;100273.58;106051;1303;22041;-81
2021/12/31 05:20:37;;;;;;;;;;;;;;;;;;;;;
2021/12/31 05:24:18;;;;;;;;;;;;;;;;;;;;;
2021/12/31 05:28:04;;;;;;;;;;;;;;;;;;;;;
2021/12/31 05:31:19;;;;;;;6.70;5.60;;;;;;;10.61;84.94;100268.14;105311;1311;23169;-80
2021/12/31 05:34:26;;;;;;;;;;;;;;;;;;;;;
2021/12/31 05:38:05;;;;;;;;;;;;;;;;;;;;;
2021/12/31 05:41:39;;;;;;;;;;;;;;;;;;;;;
2021/12/31 05:45:12;;;;;;;9.00;7.80;;;;;;;10.63;84.79;100251.73;106572;1295;23085;-81
2021/12/31 05:48:49;;;;;;;7.90;7.20;;;;;;;10.66;84.71;100258.13;106989;1294;22612;-80
2021/12/31 05:52:47;;;;;;;7.70;6.90;;;;;;;10.68;84.91;100265.51;107382;1290;22354;-81
2021/12/31 06:00:29;;;;;;;;;;;;;;;;;;;;;
2021/12/31 06:03:45;;;;;;;7.40;6.70;;;;;;;10.69;84.69;100268.38;106847;1295;22036;-80
2021/12/31 06:07:21;;;;;;;8.50;6.70;;;;;;;10.70;84.75;100268.29;107124;1294;24371;-79
2021/12/31 06:10:06;;;;;;;7.10;6.20;;;;;;;10.72;84.61;100266.29;106767;1295;22067;-80
2021/12/31 06:13:00;;;;;;;7.30;6.60;;;;;;;10.74;84.63;100267.57;107073;1292;22067;-80
2021/12/31 06:15:57;;;;;;;8.00;7.30;;;;;;;10.74;84.57;100267.08;106789;1295;22063;-81
2021/12/31 06:19:38;;;;;;;6.80;6.00;;;;;;;10.73;84.67;100276.02;107269;1291;22033;-80
2021/12/31 06:22:58;;;;;;;;;;;;;;;;;;;;;
2021/12/31 06:26:26;;;;;;;7.00;6.20;;;;;;;10.74;84.65;100276.95;107327;1292;22543;-82
2021/12/31 06:30:06;;;;;;;7.10;6.50;;;;;;;10.76;84.67;100278.70;107279;1292;21988;-80
2021/12/31 06:33:34;;;;;;;6.10;5.50;;;;;;;10.76;84.71;100283.79;107231;1292;22038;-81
2021/12/31 06:36:35;;;;;;;;;;;;;;;;;;;;;
2021/12/31 06:40:31;;;;;;;;;;;;;;;;;;;;;
2021/12/31 06:44:33;;;;;;;;;;;;;;;;;;;;;
2021/12/31 06:48:05;;;;;;;;;;;;;;;;;;;;;
2021/12/31 06:51:19;;;;;;;;;;;;;;;;;;;;;
2021/12/31 06:55:39;;;;;;;7.00;6.30;;;;;;;10.91;84.88;100305.37;107397;1292;23657;-81
2021/12/31 06:59:10;;;;;;;;;;;;;;;;;;;;;
2021/12/31 07:02:44;;;;;;;6.20;5.20;;;;;;;10.97;84.75;100315.45;106271;1305;22041;-83
2021/12/31 07:06:54;;;;;;;;;;;;;;;;;;;;;
2021/12/31 07:10:19;;;;;;;7.40;5.30;;;;;;;11.06;84.81;100318.79;105542;1313;22035;-83
2021/12/31 07:13:37;;;;;;;5.60;4.30;;;;;;;11.10;84.61;100321.88;105660;1311;22090;-83
2021/12/31 07:16:49;;;;;;;;;;;;;;;;;;;;;
2021/12/31 07:19:47;;;;;;;6.10;5.50;;;;;;;11.16;84.51;100318.55;105979;1308;23620;-83
2021/12/31 07:23:12;;;;;;;7.00;6.20;;;;;;;11.19;84.47;100317.58;105978;1308;23070;-84
2021/12/31 07:31:17;;;;;;;8.10;7.40;;;;;;;11.19;84.42;100320.58;106686;1299;23063;-83
2021/12/31 07:35:41;;;;;;;;;;;;;;;;;;;;;
2021/12/31 07:40:08;;;;;;;;;;;;;;;;;;;;;
2021/12/31 07:43:45;;;;;;;8.60;7.70;;;;;;;11.30;84.23;100326.99;105564;1314;22779;-83
2021/12/31 07:47:22;;;;;;;;;;;;;;;;;;;;;
2021/12/31 07:54:04;;;;;;;11.20;10.10;;;;;;;11.40;83.77;100325.48;105203;1321;22046;-83
2021/12/31 08:00:55;;;;;;;13.20;9.80;;;;;;;11.42;83.57;100327.45;105244;1315;22051;-82
2021/12/31 08:03:51;;;;;;;12.60;9.90;;;;;;;11.44;83.46;100328.41;105466;1311;22341;-82
2021/12/31 08:06:56;;;;;;;;;;;;;;;;;;;;;
2021/12/31 08:10:08;;;;;;;;;;;;;;;;;;;;;
2021/12/31 08:13:19;;;;;;;;;;;;;;;;;;;;;
2021/12/31 08:16:08;;;;;;;10.50;7.60;;;;;;;11.59;83.07;100334.36;106100;1305;22041;-82
2021/12/31 08:19:13;;;;;;;9.50;8.10;;;;;;;11.62;82.83;100331.23;105988;1305;22147;-82
2021/12/31 08:23:00;;;;;;;;;;;;;;;;;;;;;
2021/12/31 08:26:10;;;;;;;12.70;11.40;;;;;;;11.63;82.47;100332.38;107269;1292;22945;-81
2021/12/31 08:30:03;;;;;;;;;;;;;;;;;;;;;
2021/12/31 08:33:13;;;;;;;;;;;;;;;;;;;;;
2021/12/31 08:40:57;;;;;;;;;;;;;;;;;;;;;
2021/12/31 08:45:29;;;;;;;11.60;9.70;;;;;;;11.73;82.48;100346.63;106746;1299;22748;-81
2021/12/31 08:49:07;;;;;;;12.90;9.80;;;;;;;11.81;82.33;100350.39;106617;1300;24602;-81
2021/12/31 08:56:05;;;;;;;10.80;9.70;;;;;;;11.92;81.82;100347.17;106129;1305;23010;-81
2021/12/31 08:58:51;;;;;;;;;;;;;;;;;;;;;
2021/12/31 09:02:12;;;;;;;;;;;;;;;;;;;;;
2021/12/31 09:05:57;;;;;;;10.40;9.40;;;;;;;12.08;81.44;100346.39;107224;1293;22742;-80
2021/12/31 09:09:45;;;;;;;19.70;14.70;;;;;;;12.12;81.14;100346.25;107216;1293;23636;-81
2021/12/31 09:13:02;;;;;;;;;;;;;;;;;;;;;
2021/12/31 09:16:58;;;;;;;9.50;8.30;;;;;;;12.19;80.66;100356.89;106489;1298;22071;-81
2021/12/31 09:20:22;;;;;;;10.30;9.30;;;;;;;12.20;80.75;100362.08;105727;1308;22156;-81
2021/12/31 09:23:49;;;;;;;11.40;10.20;;;;;;;12.24;80.56;100357.45;105489;1313;22052;-80
2021/12/31 09:27:08;;;;;;;;;;;;;;;;;;;;;
2021/12/31 09:30:34;;;;;;;;;;;;;;;;;;;;;
2021/12/31 09:33:25;;;;;;;9.60;8.30;;;;;;;12.35;80.20;100357.39;105360;1310;22053;-80
2021/12/31 09:36:38;;;;;;;16.40;9.90;;;;;;;12.41;80.10;100360.34;105659;1310;22025;-81
2021/12/31 09:39:18;;;;;;;13.60;8.80;;;;;;;12.46;79.73;100361.42;105976;1305;23308;-80
2021/12/31 09:41:57;;;;;;;10.80;8.00;;;;;;;12.52;79.52;100352.44;106208;1301;22025;-81
2021/12/31 09:44:29;;;;;;;12.80;10.40;;;;;;;12.54;79.28;100356.66;106025;1301;22487;-80
2021/12/31 09:47:13;;;;;;;13.40;11.00;;;;;;;12.56;79.08;100352.66;106022;1301;23695;-81
2021/12/31 09:50:27;;;;;;;12.40;10.80;;;;;;;12.54;78.79;100347.61;106390;1300;22084;-81
2021/12/31 09:53:21;;;;;;;11.70;10.10;;;;;;;12.51;78.63;100343.38;106159;1299;23613;-80
2021/12/31 09:57:20;;;;;;;15.90;12.10;;;;;;;12.49;78.59;100345.90;106422;1298;22021;-80
2021/12/31 10:00:43;;;;;;;;;;;;;;;;;;;;;
2021/12/31 10:04:50;;;;;;;13.70;8.90;;;;;;;12.46;78.61;100346.69;107198;1292;22004;-80
2021/12/31 10:08:23;;;;;;;;;;;;;;;;;;;;;
2021/12/31 10:12:05;;;;;;;15.10;9.60;;;;;;;12.42;78.29;100342.98;105888;1307;23114;-81
2021/12/31 10:15:08;;;;;;;;;;;;;;;;;;;;;
2021/12/31 10:18:07;;;;;;;;;;;;;;;;;;;;;
2021/12/31 10:21:25;;;;;;;;;;;;;;;;;;;;;
2021/12/31 10:25:01;;;;;;;14.10;11.60;;;;;;;12.48;78.41;100319.20;105386;1312;22051;-81
2021/12/31 10:31:27;;;;;;;10.90;8.20;;;;;;;12.45;78.10;100322.65;106367;1305;22069;-83
2021/12/31 10:34:50;;;;;;;;;;;;;;;;;;;;;
2021/12/31 10:39:16;;;;;;;14.10;10.20;;;;;;;12.46;77.90;100326.62;105836;1309;22082;-83
2021/12/31 10:42:28;;;;;;;;;;;;;;;;;;;;;
2021/12/31 10:45:56;;;;;;;17.00;13.00;;;;;;;12.44;77.65;100331.92;105857;1311;22044;-81
2021/12/31 10:49:02;;;;;;;;;;;;;;;;;;;;;
2021/12/31 10:52:09;;;;;;;;;;;;;;;;;;;;;
2021/12/31 10:55:23;;;;;;;16.50;14.60;;;;;;;12.38;77.55;100322.65;105823;1308;22297;-81
2021/12/31 10:58:33;;;;;;;14.70;12.80;;;;;;;12.35;77.40;100321.03;106713;1303;22071;-80
2021/12/31 11:02:11;;;;;;;;;;;;;;;;;;;;;
2021/12/31 11:05:14;;;;;;;20.00;17.90;;;;;;;12.32;77.52;100322.38;106082;1306;23697;-81
2021/12/31 11:08:47;;;;;;;;;;;;;;;;;;;;;
2021/12/31 11:11:50;;;;;;;16.50;14.80;;;;;;;12.31;77.71;100320.60;106480;1301;23069;-82
2021/12/31 11:15:55;;;;;;;;;;;;;;;;;;;;;
2021/12/31 11:20:10;;;;;;;;;;;;;;;;;;;;;
2021/12/31 11:24:00;;;;;;;17.80;15.50;;;;;;;12.39;77.97;100302.23;106348;1299;22018;-79
2021/12/31 11:27:52;;;;;;;;;;;;;;;;;;;;;
2021/12/31 11:31:14;;;;;;;;;;;;;;;;;;;;;
2021/12/31 11:34:05;;;;;;;23.00;20.70;;;;;;;12.60;77.42;100293.11;106564;1302;22016;-81
2021/12/31 11:37:52;;;;;;;14.40;13.00;;;;;;;12.64;77.35;100290.35;106090;1307;23722;-81
2021/12/31 11:40:52;;;;;;;;;;;;;;;;;;;;;
2021/12/31 11:44:23;;;;;;;;;;;;;;;;;;;;;
2021/12/31 11:47:30;;;;;;;17.70;15.90;;;;;;;12.75;76.65;100289.04;106218;1306;22071;-79
2021/12/31 11:50:54;;;;;;;16.00;11.90;;;;;;;12.78;76.64;100289.20;106130;1308;22886;-79
2021/12/31 11:53:53;;;;;;;26.20;16.80;;;;;;;12.80;76.22;100287.48;105947;1307;23221;-79
2021/12/31 11:57:14;;;;;;;33.40;22.40;;;;;;;12.79;76.11;100291.98;106424;1301;22329;-81
2021/12/31 12:02:11;;;;;;;15.90;13.50;;;;;;;12.77;75.96;100290.45;106303;1305;22062;-79
2021/12/31 12:06:09;;;;;;;16.40;13.50;;;;;;;12.75;75.94;100287.05;105839;1310;22030;-80
2021/12/31 12:09:30;;;;;;;;;;;;;;;;;;;;;
2021/12/31 12:12:31;;;;;;;;;;;;;;;12.80;75.93;100283.85;105502;1313;22046;-80
2021/12/31 12:16:14;;;;;;;;;;;;;;;;;;;;;
2021/12/31 12:19:25;;;;;;;28.20;20.00;;;;;;;12.79;75.72;100273.79;105584;1310;22097;-80
2021/12/31 12:23:04;;;;;;;;;;;;;;;;;;;;;
2021/12/31 12:25:54;;;;;;;37.20;19.30;;;;;;;12.83;75.54;100267.11;106284;1304;23629;-81
2021/12/31 12:29:33;;;;;;;23.60;20.70;;;;;;;12.82;75.35;100259.08;107402;1290;23160;-80
2021/12/31 12:33:29;;;;;;;;;;;;;;;;;;;;;
2021/12/31 12:37:50;;;;;;;20.10;17.80;;;;;;;12.82;75.29;100251.09;107739;1289;22768;-80
2021/12/31 12:45:38;;;;;;;18.70;13.80;;;;;;;12.81;75.15;100225.78;106233;1301;22612;-79
2021/12/31 12:49:23;;;;;;;12.10;10.60;;;;;;;12.80;74.79;100222.43;106069;1305;22577;-78
2021/12/31 12:52:32;;;;;;;15.50;13.10;;;;;;;12.90;74.68;100223.25;106060;1303;544230;-79
2021/12/31 12:55:50;;;;;;;;;;;;;;;;;;;;;
2021/12/31 13:03:21;;;;;;;;;;;;;;;;;;;;;
2021/12/31 13:06:10;;;;;;;16.50;13.50;;;;;;;12.85;74.49;100232.95;103854;1286;5337212;-80
2021/12/31 13:09:51;;;;;;;15.30;12.10;;;;;;;12.86;74.41;100234.70;107719;1286;22366;-79
2021/12/31 13:13:00;;;;;;;18.10;12.90;;;;;;;12.86;74.45;100237.76;107004;1296;23626;-79
2021/12/31 13:16:20;;;;;;;19.10;11.80;;;;;;;12.88;74.30;100241.85;106076;1305;22879;-80
2021/12/31 13:19:05;;;;;;;16.50;11.50;;;;;;;12.91;74.18;100239.98;105996;1302;22034;-79
2021/12/31 13:21:45;;;;;;;21.40;14.30;;;;;;;12.93;74.12;100247.14;105795;1305;23796;-79
2021/12/31 13:24:44;;;;;;;18.10;11.80;;;;;;;12.96;73.81;100242.20;105928;1305;23600;-81
2021/12/31 13:27:14;;;;;;;23.10;14.20;;;;;;;12.94;73.71;100243.11;105749;1302;23037;-77
2021/12/31 13:29:53;;;;;;;28.00;17.40;;;;;;;12.92;73.54;100240.33;105863;1299;22018;-79
2021/12/31 13:32:24;;;;;;;30.40;23.70;;;;;;;12.91;73.40;100238.39;106218;1293;23041;-77
2021/12/31 13:35:08;;;;;;;23.60;19.00;;;;;;;12.88;73.22;100240.71;107488;1285;22992;-78
2021/12/31 13:38:03;;;;;;;21.90;16.00;;;;;;;12.85;73.13;100238.72;107691;1286;23037;-79
2021/12/31 13:40:54;;;;;;;23.20;16.80;;;;;;;12.83;73.01;100242.13;107587;1285;22011;-78
2021/12/31 13:43:34;;;;;;;20.10;14.50;;;;;;;12.79;73.00;100242.48;108018;1279;22411;-78
2021/12/31 13:46:45;;;;;;;24.30;16.60;;;;;;;12.76;73.09;100247.29;108148;1278;23584;-78
2021/12/31 13:49:48;;;;;;;20.70;15.70;;;;;;;12.74;73.09;100246.59;107679;1284;22005;-77
2021/12/31 13:52:47;;;;;;;18.60;14.20;;;;;;;12.73;72.89;100245.87;107889;1284;23632;-78
2021/12/31 13:55:58;;;;;;;;;;;;;;;;;;;;;
2021/12/31 13:58:44;;;;;;;20.20;14.60;;;;;;;12.66;72.85;100237.10;107871;1284;22004;-77
2021/12/31 14:01:21;;;;;;;22.40;16.30;;;;;;;12.65;72.84;100240.67;107901;1284;22022;-78
2021/12/31 14:04:13;;;;;;;18.90;15.40;;;;;;;12.63;72.83;100241.50;107890;1285;23624;-78
2021/12/31 14:08:30;;;;;;;22.80;18.70;;;;;;;12.62;72.84;100235.33;107809;1279;23039;-77
2021/12/31 14:10:36;;;;;;;18.30;15.40;;;;;;;12.59;72.72;100232.35;108233;1277;23049;-79
2021/12/31 14:13:09;;;;;;;18.00;14.20;;;;;;;12.57;72.64;100241.61;108297;1278;22012;-78
2021/12/31 14:16:00;;;;;;;19.50;16.80;;;;;;;12.57;72.71;100241.23;108158;1279;22764;-79
2021/12/31 14:18:30;;;;;;;17.00;14.30;;;;;;;12.58;72.72;100238.87;107976;1285;23041;-79
2021/12/31 14:21:26;;;;;;;26.60;20.20;;;;;;;12.58;72.62;100238.25;108316;1264;23597;-80
2021/12/31 14:23:58;;;;;;;25.40;21.20;;;;;;;12.58;72.47;100238.30;108487;1279;21999;-80
2021/12/31 14:26:29;;;;;;;20.00;17.00;;;;;;;12.57;72.29;100236.61;108397;1279;22776;-81
2021/12/31 14:29:02;;;;;;;16.80;15.10;;;;;;;12.56;72.42;100235.62;108429;1279;22526;-80
2021/12/31 14:31:33;;;;;;;39.80;31.80;;;;;;;12.58;72.35;100234.18;108527;1276;22110;-79
2021/12/31 14:34:04;;;;;;;29.70;25.40;;;;;;;12.57;72.17;100236.95;108532;1279;22007;-80
2021/12/31 14:37:13;;;;;;;26.20;22.90;;;;;;;12.54;71.92;100239.00;108070;1282;22023;-80
2021/12/31 14:39:52;;;;;;;30.20;23.50;;;;;;;12.48;72.00;100237.14;107629;1288;23625;-80
2021/12/31 14:42:29;;;;;;;33.20;26.40;;;;;;;12.47;72.04;100236.46;107236;1291;22090;-79
2021/12/31 14:45:20;;;;;;;39.90;28.90;;;;;;;12.42;71.98;100238.57;107328;1294;24402;-80
2021/12/31 14:47:52;;;;;;;35.80;26.90;;;;;;;12.40;72.09;100235.19;107013;1295;23736;-81
2021/12/31 14:50:26;;;;;;;28.00;20.40;;;;;;;12.39;72.06;100232.41;106183;1303;22038;-81
2021/12/31 14:53:02;;;;;;;25.40;21.00;;;;;;;12.38;72.11;100225.60;106004;1303;22952;-81
2021/12/31 14:55:38;;;;;;;23.70;20.10;;;;;;;12.36;72.08;100225.23;106545;1298;23744;-81
2021/12/31 14:58:09;;;;;;;25.60;16.50;;;;;;;12.35;72.19;100220.08;106735;1296;22041;-80
2021/12/31 15:00:42;;;;;;;23.80;17.50;;;;;;;12.31;71.97;100221.34;107301;1289;22009;-80
2021/12/31 15:03:14;;;;;;;17.50;15.20;;;;;;;12.31;72.24;100217.34;107366;1292;23671;-80
2021/12/31 15:05:51;;;;;;;19.70;14.30;;;;;;;12.28;72.24;100211.71;107568;1292;22007;-80
2021/12/31 15:08:37;;;;;;;22.50;16.50;;;;;;;12.26;72.38;100204.67;107401;1286;24456;-81
2021/12/31 15:11:16;;;;;;;23.40;15.30;;;;;;;12.27;72.41;100197.67;107889;1288;24444;-80
2021/12/31 15:14:14;;;;;;;21.30;15.90;;;;;;;12.27;72.31;100199.10;108044;1286;23063;-81
2021/12/31 15:17:22;;;;;;;16.80;13.70;;;;;;;12.22;72.16;100195.38;107957;1288;22040;-80
2021/12/31 15:19:56;;;;;;;18.20;13.90;;;;;;;12.21;72.37;100190.80;107499;1288;22005;-81
2021/12/31 15:22:45;;;;;;;19.60;15.30;;;;;;;12.21;72.48;100197.29;108005;1282;21996;-80
2021/12/31 15:25:23;;;;;;;21.50;17.30;;;;;;;12.21;72.54;100197.11;107721;1281;22225;-80
2021/12/31 15:27:59;;;;;;;20.80;17.10;;;;;;;12.23;72.49;100201.09;108184;1282;22854;-79
2021/12/31 15:31:03;;;;;;;23.40;16.90;;;;;;;12.25;72.51;100200.02;107893;1281;22020;-80
2021/12/31 15:34:32;;;;;;;22.10;17.00;;;;;;;12.19;72.36;100202.77;107766;1286;22004;-81
2021/12/31 15:38:31;;;;;;;36.60;21.90;;;;;;;12.15;72.37;100206.30;107688;1287;23675;-79
2021/12/31 15:41:20;;;;;;;27.00;18.10;;;;;;;12.14;72.36;100206.91;107539;1288;23595;-80
2021/12/31 15:43:54;;;;;;;25.50;18.50;;;;;;;12.15;72.43;100207.41;107746;1289;22241;-80
2021/12/31 15:46:30;;;;;;;;;;;;;;;12.15;72.31;100207.50;107709;1290;22017;-80
2021/12/31 15:49:48;;;;;;;27.00;20.40;;;;;;;12.07;72.55;100198.73;106967;1290;22144;-80
2021/12/31 15:52:20;;;;;;;31.80;24.50;;;;;;;12.10;72.62;100195.97;107159;1291;22137;-80
2021/12/31 15:55:15;;;;;;;27.70;19.90;;;;;;;12.13;72.57;100195.37;107548;1290;23157;-80
2021/12/31 15:58:06;;;;;;;25.90;20.30;;;;;;;12.15;72.53;100185.79;107423;1291;22031;-80
2021/12/31 16:00:36;;;;;;;27.30;19.60;;;;;;;12.18;72.43;100177.51;107314;1291;22056;-80
2021/12/31 16:03:07;;;;;;;24.30;16.30;;;;;;;12.22;72.46;100180.17;107432;1292;22798;-79
2021/12/31 16:05:40;;;;;;;29.20;20.30;;;;;;;12.26;72.36;100184.05;106786;1295;23765;-80
2021/12/31 16:08:13;;;;;;;31.20;22.80;;;;;;;12.31;72.20;100175.61;106522;1296;22814;-81
2021/12/31 16:10:44;;;;;;;24.50;18.00;;;;;;;12.34;72.16;100182.75;106957;1289;22384;-81
2021/12/31 16:13:19;;;;;;;29.00;17.30;;;;;;;12.37;71.95;100179.91;107655;1288;23089;-79
2021/12/31 16:15:49;;;;;;;27.70;16.80;;;;;;;12.38;71.82;100184.51;107929;1288;22036;-79
2021/12/31 16:18:21;;;;;;;30.10;20.70;;;;;;;12.41;71.68;100188.94;107577;1289;22003;-79
2021/12/31 16:21:05;;;;;;;27.60;17.50;;;;;;;12.39;71.49;100186.45;107281;1292;22098;-79
2021/12/31 16:23:46;;;;;;;25.80;16.80;;;;;;;12.37;71.31;100188.33;107543;1288;22026;-80
2021/12/31 16:26:21;;;;;;;26.10;18.70;;;;;;;12.36;71.28;100190.89;107755;1288;22397;-80
2021/12/31 16:29:14;;;;;;;28.60;20.70;;;;;;;12.36;71.21;100190.63;107070;1293;23619;-79
2021/12/31 16:32:01;;;;;;;29.80;20.10;;;;;;;12.34;71.12;100187.60;106439;1296;23045;-79
2021/12/31 16:34:39;;;;;;;29.80;19.80;;;;;;;12.36;71.01;100185.70;106686;1293;22028;-78
2021/12/31 16:37:23;;;;;;;37.60;25.50;;;;;;;12.35;70.91;100184.18;107054;1294;23191;-79
2021/12/31 16:40:29;;;;;;;29.50;21.40;;;;;;;12.34;70.91;100182.56;106437;1299;22464;-80
2021/12/31 16:43:09;;;;;;;30.20;23.20;;;;;;;12.32;70.89;100180.44;106333;1301;22208;-80
2021/12/31 16:45:42;;;;;;;30.60;21.90;;;;;;;12.33;70.86;100180.17;106399;1295;24309;-81
2021/12/31 16:48:24;;;;;;;26.60;20.30;;;;;;;12.35;70.79;100179.05;107275;1290;22009;-80
2021/12/31 16:51:01;;;;;;;21.40;15.50;;;;;;;12.38;70.75;100175.42;107508;1285;22625;-79
2021/12/31 16:53:41;;;;;;;23.90;17.20;;;;;;;12.42;70.64;100175.92;107637;1285;23762;-80
2021/12/31 16:56:23;;;;;;;23.30;16.80;;;;;;;12.43;70.61;100174.22;107959;1285;23799;-79
2021/12/31 16:59:45;;;;;;;21.30;15.20;;;;;;;12.42;70.56;100171.84;108388;1281;22723;-80
2021/12/31 17:02:43;;;;;;;25.30;17.90;;;;;;;12.40;70.53;100157.77;108578;1278;22234;-80
2021/12/31 17:05:48;;;;;;;29.80;19.10;;;;;;;12.37;70.48;100151.61;108629;1276;22753;-80
2021/12/31 17:08:41;;;;;;;;;;;;;;;;;;;;;
2021/12/31 17:11:16;;;;;;;26.60;17.90;;;;;;;12.39;70.49;100142.70;108138;1283;24395;-80
2021/12/31 17:13:55;;;;;;;28.90;17.60;;;;;;;12.41;70.53;100139.52;107984;1283;22339;-80
2021/12/31 17:16:50;;;;;;;28.70;18.70;;;;;;;12.44;70.47;100134.38;108109;1283;23794;-80
2021/12/31 17:19:28;;;;;;;25.50;16.80;;;;;;;12.46;70.34;100132.72;108197;1283;23582;-80
2021/12/31 17:22:54;;;;;;;;;;;;;;;;;;;;;
2021/12/31 17:25:38;;;;;;;28.60;18.50;;;;;;;12.49;70.24;100134.04;107934;1280;23647;-80
2021/12/31 17:28:45;;;;;;;22.30;14.60;;;;;;;12.49;70.16;100128.40;108441;1279;22040;-81
2021/12/31 17:31:29;;;;;;;21.20;14.50;;;;;;;12.53;70.16;100129.23;107905;1285;22017;-80
2021/12/31 17:34:17;;;;;;;24.60;15.40;;;;;;;12.54;70.07;100127.29;107915;1285;22009;-80
2021/12/31 17:37:06;;;;;;;19.70;12.00;;;;;;;12.54;70.00;100126.45;107883;1286;23704;-81
2021/12/31 17:39:59;;;;;;;18.40;12.60;;;;;;;12.55;69.90;100127.50;108032;1285;23049;-80
2021/12/31 17:43:18;;;;;;;20.50;13.10;;;;;;;12.54;69.95;100125.36;107191;1292;22790;-80
2021/12/31 17:45:59;;;;;;;16.10;11.30;;;;;;;12.51;69.73;100125.14;107288;1294;21985;-80
2021/12/31 17:48:53;;;;;;;20.10;14.80;;;;;;;12.48;69.64;100128.15;107362;1292;22042;-81
2021/12/31 17:51:32;;;;;;;;;;;;;;;12.48;69.90;100136.87;107273;1295;21999;-79
2021/12/31 17:54:44;;;;;;;17.40;11.90;;;;;;;12.42;69.94;100143.73;107271;1292;22843;-81
2021/12/31 17:57:22;;;;;;;14.70;10.40;;;;;;;12.44;69.93;100143.63;107699;1287;22011;-79
2021/12/31 18:00:00;;;;;;;13.90;9.60;;;;;;;12.47;69.82;100138.55;107104;1288;22092;-81
2021/12/31 18:02:55;;;;;;;35.30;24.60;;;;;;;12.50;69.71;100140.80;108112;1287;23742;-80
2021/12/31 18:05:26;;;;;;;25.50;18.90;;;;;;;12.51;69.67;100139.68;108157;1287;22824;-80
2021/12/31 18:07:58;;;;;;;16.10;12.10;;;;;;;12.51;69.67;100137.80;107562;1293;22025;-80
2021/12/31 18:10:30;;;;;;;26.80;23.10;;;;;;;12.53;69.61;100138.77;107263;1289;23053;-80
2021/12/31 18:13:26;;;;;;;22.50;18.40;;;;;;;12.52;69.45;100139.86;107834;1288;22022;-80
2021/12/31 18:16:14;;;;;;;;;;;;;;;;;;;;;
2021/12/31 18:19:39;;;;;;;16.30;12.10;;;;;;;12.46;69.45;100136.75;107692;1288;22190;-80
2021/12/31 18:22:51;;;;;;;24.50;19.40;;;;;;;12.44;69.63;100138.81;107665;1288;22061;-80
2021/12/31 18:25:33;;;;;;;;;;;;;;;;;;;;;
2021/12/31 18:28:33;;;;;;;17.20;12.50;;;;;;;12.40;69.43;100132.98;107767;1288;22045;-81
2021/12/31 18:31:15;;;;;;;46.10;34.80;;;;;;;12.37;69.65;100134.00;106973;1292;22036;-79
2021/12/31 18:33:50;;;;;;;14.70;12.20;;;;;;;12.34;69.62;100139.13;106568;1298;22046;-80
2021/12/31 18:36:43;;;;;;;15.30;11.60;;;;;;;12.33;69.62;100138.15;106525;1293;23726;-80
2021/12/31 18:39:32;;;;;;;16.00;11.40;;;;;;;12.33;69.73;100139.77;107279;1293;22155;-80
2021/12/31 18:42:23;;;;;;;17.90;13.40;;;;;;;12.32;69.66;100136.47;107283;1293;23815;-80
2021/12/31 18:45:06;;;;;;;19.80;14.30;;;;;;;12.34;69.74;100136.11;107677;1288;22324;-80
2021/12/31 18:48:03;;;;;;;19.80;13.40;;;;;;;12.34;69.68;100136.79;107474;1292;22340;-79
2021/12/31 18:50:49;;;;;;;17.50;13.60;;;;;;;12.32;69.76;100140.86;107357;1287;22057;-81
2021/12/31 18:53:36;;;;;;;19.80;15.70;;;;;;;12.32;69.81;100143.42;108132;1281;22016;-80
2021/12/31 18:56:23;;;;;;;21.40;15.60;;;;;;;12.31;69.80;100144.93;108328;1280;22897;-80
2021/12/31 18:59:04;;;;;;;21.80;16.10;;;;;;;12.26;69.88;100147.14;108064;1286;22023;-81